Time;durP1;ratioP1;P1;durP2;ratioP2;P2;SDS_P1;SDS_P2;PMS_P1;PMS_P2;Temp;Humidity;BMP_temperature;BMP_pressure;BME280_temperature;BME280_humidity;BME280_pressure;Samples;Min_cycle;Max_cycle;Signal;HPM_P1;HPM_P2
2022/09/23 05:56:06;;;;;;;;;2.67;2.67;;;;;;;;5174590;27;78877;-75
2022/09/23 05:58:32;;;;;;;;;4.00;4.00;;;;;;;;5157251;27;20756;-79
2022/09/23 06:00:57;;;;;;;;;1.75;1.75;;;;;;;;5157313;27;11453;-76
2022/09/23 06:03:24;;;;;;;;;2.00;2.00;;;;;;;;5154907;27;11677;-74
2022/09/23 06:05:53;;;;;;;;;3.50;2.00;;;;;;;;5155785;27;11448;-76
2022/09/23 06:08:18;;;;;;;;;5.50;4.00;;;;;;;;5156400;27;11453;-75
2022/09/23 06:10:45;;;;;;;;;1.00;1.00;;;;;;;;5156472;27;12350;-76
2022/09/23 06:13:11;;;;;;;;;4.00;4.00;;;;;;;;5155907;27;10393;-75
2022/09/23 06:15:36;;;;;;;;;3.50;3.00;;;;;;;;5156074;27;12119;-76
2022/09/23 06:18:02;;;;;;;;;4.25;2.50;;;;;;;;5156988;27;10271;-76
2022/09/23 06:20:27;;;;;;;;;4.00;4.00;;;;;;;;5155026;27;11550;-74
2022/09/23 06:22:53;;;;;;;;;5.50;3.00;;;;;;;;5156194;27;10518;-76
2022/09/23 06:25:20;;;;;;;;;5.00;3.00;;;;;;;;5156364;27;10266;-76
2022/09/23 06:27:55;;;;;;;;;4.00;4.00;;;;;;;;5153537;27;8788;-76
2022/09/23 06:30:21;;;;;;;;;5.00;3.00;;;;;;;;5152226;27;11420;-76
2022/09/23 06:32:52;;;;;;;;;2.00;2.00;;;;;;;;5156014;27;11542;-77
2022/09/23 06:35:18;;;;;;;;;3.50;3.50;;;;;;;;5155552;27;8780;-78
2022/09/23 06:37:43;;;;;;;;;4.25;2.00;;;;;;;;5156139;27;12655;-77
2022/09/23 06:40:09;;;;;;;;;3.00;3.00;;;;;;;;5156674;27;11333;-79
2022/09/23 06:42:34;;;;;;;;;7.75;2.50;;;;;;;;5156731;27;10297;-77
2022/09/23 06:45:00;;;;;;;;;3.00;3.00;;;;;;;;5156525;27;11316;-77
2022/09/23 06:47:26;;;;;;;;;4.25;4.25;;;;;;;;5156196;27;11725;-75
2022/09/23 06:49:51;;;;;;;;;5.00;4.00;;;;;;;;5156065;27;11460;-75
2022/09/23 06:52:16;;;;;;;;;4.25;4.00;;;;;;;;5156395;27;11388;-74
2022/09/23 06:54:42;;;;;;;;;9.00;4.25;;;;;;;;5155857;27;9044;-79
2022/09/23 06:57:09;;;;;;;;;2.00;2.00;;;;;;;;5156460;27;11666;-75
2022/09/23 06:59:34;;;;;;;;;9.00;7.50;;;;;;;;5155811;27;11568;-75
2022/09/23 07:01:59;;;;;;;;;5.00;5.00;;;;;;;;5155798;27;11546;-76
2022/09/23 07:04:25;;;;;;;;;7.00;5.50;;;;;;;;5156323;27;11389;-77
2022/09/23 07:06:52;;;;;;;;;5.00;5.00;;;;;;;;5145739;27;11347;-76
2022/09/23 07:09:17;;;;;;;;;8.50;7.25;;;;;;;;5141816;27;12566;-75
2022/09/23 07:11:42;;;;;;;;;6.50;6.25;;;;;;;;5142122;27;11684;-75
2022/09/23 07:14:08;;;;;;;;;8.00;7.25;;;;;;;;5142754;27;9866;-75
2022/09/23 07:16:33;;;;;;;;;10.50;9.00;;;;;;;;5143373;27;10250;-75
2022/09/23 07:18:58;;;;;;;;;8.25;7.75;;;;;;;;5141658;27;21773;-75
2022/09/23 07:21:23;;;;;;;;;11.25;11.25;;;;;;;;5141562;27;21518;-74
2022/09/23 07:23:50;;;;;;;;;10.50;6.50;;;;;;;;5140554;27;23886;-74
2022/09/23 07:26:16;;;;;;;;;11.50;10.00;;;;;;;;5139940;27;24309;-76
2022/09/23 07:28:42;;;;;;;;;7.25;6.50;;;;;;;;5141167;27;21631;-78
2022/09/23 07:31:12;;;;;;;;;8.00;7.50;;;;;;;;5139779;27;22415;-74
2022/09/23 07:33:38;;;;;;;;;6.50;6.50;;;;;;;;5141085;27;10373;-76
2022/09/23 07:36:05;;;;;;;;;8.75;7.25;;;;;;;;5141901;27;11437;-78
2022/09/23 07:38:30;;;;;;;;;7.75;7.75;;;;;;;;5123089;27;11556;-76
2022/09/23 07:41:22;;;;;;;;;5.50;4.75;;;;;;;;5120901;27;11475;-77
2022/09/23 07:43:49;;;;;;;;;11.50;9.75;;;;;;;;5122245;27;10369;-74
2022/09/23 07:46:16;;;;;;;;;11.75;9.00;;;;;;;;5140197;27;22879;-77
2022/09/23 07:48:42;;;;;;;;;7.75;7.50;;;;;;;;5141250;27;11402;-75
2022/09/23 07:51:12;;;;;;;;;16.25;15.75;;;;;;;;5139992;27;22731;-76
2022/09/23 07:53:37;;;;;;;;;18.50;18.00;;;;;;;;5137738;27;22571;-76
2022/09/23 07:56:05;;;;;;;;;8.25;6.50;;;;;;;;5140176;27;11679;-76
2022/09/23 07:58:30;;;;;;;;;26.50;22.50;;;;;;;;5140165;27;22748;-77
2022/09/23 08:01:00;;;;;;;;;14.00;12.25;;;;;;;;5138208;27;22627;-74
2022/09/23 08:03:25;;;;;;;;;17.00;12.50;;;;;;;;5138433;27;13310;-74
2022/09/23 08:05:52;;;;;;;;;9.50;9.50;;;;;;;;5140564;27;11759;-73
2022/09/23 08:08:17;;;;;;;;;9.00;9.00;;;;;;;;5138873;27;22614;-73
2022/09/23 08:10:42;;;;;;;;;11.25;11.00;;;;;;;;5140475;27;11460;-74
2022/09/23 08:13:08;;;;;;;;;14.50;11.50;;;;;;;;5137835;27;22671;-74
2022/09/23 08:15:33;;;;;;;;;9.75;9.75;;;;;;;;5140218;27;11646;-74
2022/09/23 08:18:00;;;;;;;;;14.00;10.00;;;;;;;;5139224;27;23524;-76
2022/09/23 08:20:44;;;;;;;;;12.75;12.50;;;;;;;;5139494;27;22653;-76
2022/09/23 08:23:13;;;;;;;;;8.25;8.00;;;;;;;;5138793;27;14969;-80
2022/09/23 08:25:39;;;;;;;;;13.50;13.00;;;;;;;;5139898;27;22418;-78
2022/09/23 08:28:07;;;;;;;;;8.25;7.50;;;;;;;;5139909;27;23896;-80
2022/09/23 08:30:33;;;;;;;;;9.00;9.00;;;;;;;;5139104;27;22840;-75
2022/09/23 08:32:58;;;;;;;;;9.67;6.67;;;;;;;;5138489;27;13748;-77
2022/09/23 08:35:23;;;;;;;;;4.00;4.00;;;;;;;;5140280;27;10257;-79
2022/09/23 08:37:49;;;;;;;;;6.33;5.33;;;;;;;;5128341;27;11317;-78
2022/09/23 08:40:14;;;;;;;;;5.00;4.00;;;;;;;;5125943;27;11326;-76
2022/09/23 08:42:41;;;;;;;;;4.00;4.00;;;;;;;;5139237;27;11311;-80
2022/09/23 08:45:12;;;;;;;;;3.50;3.50;;;;;;;;5139511;27;8792;-77
2022/09/23 08:47:37;;;;;;;;;3.25;3.00;;;;;;;;5138827;27;14419;-76
2022/09/23 08:50:26;;;;;;;;;2.00;2.00;;;;;;;;5139127;27;8938;-77
2022/09/23 08:52:51;;;;;;;;;3.00;3.00;;;;;;;;5128225;27;10730;-76
2022/09/23 08:55:18;;;;;;;;;2.67;2.67;;;;;;;;5140064;27;8835;-83
2022/09/23 08:57:55;;;;;;;;;2.25;2.25;;;;;;;;5140320;27;11779;-78
2022/09/23 09:00:23;;;;;;;;;4.00;3.50;;;;;;;;5138001;27;10829;-76
2022/09/23 09:02:49;;;;;;;;;2.20;2.00;;;;;;;;5137920;27;11547;-76
2022/09/23 09:05:19;;;;;;;;;4.50;3.00;;;;;;;;5140015;27;11304;-75
2022/09/23 09:07:45;;;;;;;;;2.80;2.00;;;;;;;;5139378;27;10724;-77
2022/09/23 09:10:22;;;;;;;;;5.80;4.20;;;;;;;;5139242;27;10536;-76
2022/09/23 09:12:59;;;;;;;;;3.80;2.60;;;;;;;;5137322;27;11618;-76
2022/09/23 09:15:27;;;;;;;;;4.00;3.00;;;;;;;;5138835;27;11735;-75
2022/09/23 09:18:01;;;;;;;;;3.60;3.00;;;;;;;;5139333;27;11376;-73
2022/09/23 09:20:45;;;;;;;;;3.00;3.00;;;;;;;;5138970;27;9103;-74
2022/09/23 09:23:10;;;;;;;;;2.60;2.60;;;;;;;;5138060;27;8915;-74
2022/09/23 09:25:48;;;;;;;;;4.00;4.00;;;;;;;;5139535;27;11307;-80
2022/09/23 09:28:34;;;;;;;;;2.80;2.80;;;;;;;;5139750;27;12633;-82
2022/09/23 09:31:01;;;;;;;;;3.40;3.40;;;;;;;;5137990;27;11484;-79
2022/09/23 09:33:43;;;;;;;;;2.00;2.00;;;;;;;;5137838;27;11926;-77
2022/09/23 09:36:08;;;;;;;;;47.00;36.50;;;;;;;;5139250;27;12015;-74
2022/09/23 09:38:36;;;;;;;;;71.50;60.75;;;;;;;;5138488;27;23799;-75
2022/09/23 09:41:10;;;;;;;;;11.40;9.60;;;;;;;;5138795;27;13376;-75
2022/09/23 09:43:37;;;;;;;;;95.50;88.50;;;;;;;;5134937;27;24743;-75
2022/09/23 09:46:22;;;;;;;;;62.75;48.50;;;;;;;;5139013;27;23727;-85
2022/09/23 09:49:05;;;;;;;;;46.00;37.25;;;;;;;;5139455;27;12357;-74
2022/09/23 09:51:31;;;;;;;;;4.00;3.40;;;;;;;;5138281;27;13601;-78
2022/09/23 09:54:15;;;;;;;;;10.25;7.75;;;;;;;;5080954;27;24023;-77
2022/09/23 09:56:43;;;;;;;;;8.40;6.60;;;;;;;;5076875;28;21584;-78
2022/09/23 09:59:12;;;;;;;;;5.20;5.20;;;;;;;;5077978;28;22080;-78
2022/09/23 10:01:38;;;;;;;;;7.00;7.00;;;;;;;;5074971;28;12603;-75
2022/09/23 10:04:05;;;;;;;;;6.75;6.75;;;;;;;;5058177;28;11280;-79
2022/09/23 10:06:31;;;;;;;;;6.40;4.80;;;;;;;;5056741;28;14889;-77
2022/09/23 10:09:09;;;;;;;;;6.00;6.00;;;;;;;;5046273;28;10016;-79
2022/09/23 10:11:34;;;;;;;;;9.00;7.00;;;;;;;;5070572;28;10422;-75
2022/09/23 10:14:16;;;;;;;;;3.50;3.50;;;;;;;;5070442;28;9040;-74
2022/09/23 10:16:42;;;;;;;;;4.00;4.00;;;;;;;;5057085;28;11423;-75
2022/09/23 10:19:24;;;;;;;;;4.75;2.00;;;;;;;;5056923;28;12681;-75
2022/09/23 10:21:55;;;;;;;;;3.60;3.00;;;;;;;;5056950;28;9745;-77
2022/09/23 10:24:22;;;;;;;;;5.00;5.00;;;;;;;;5070485;28;10726;-74
2022/09/23 10:26:59;;;;;;;;;5.20;4.00;;;;;;;;5077387;28;10386;-74
2022/09/23 10:29:38;;;;;;;;;3.60;3.60;;;;;;;;5076749;28;10702;-75
2022/09/23 10:32:12;;;;;;;;;4.40;4.20;;;;;;;;5076567;28;12564;-74
2022/09/23 10:34:42;;;;;;;;;4.00;4.00;;;;;;;;5058328;28;11604;-77
2022/09/23 10:37:14;;;;;;;;;3.00;3.00;;;;;;;;5056763;28;8801;-75
2022/09/23 10:48:44;;;;;;;;;2.50;2.50;;;;;;;;5077968;28;15047;-76
2022/09/23 10:51:17;;;;;;;;;3.00;2.50;;;;;;;;5069316;28;9841;-79
2022/09/23 10:53:48;;;;;;;;;2.00;2.00;;;;;;;;5077735;28;9050;-80
2022/09/23 10:56:28;;;;;;;;;3.00;3.00;;;;;;;;5080852;28;11624;-82
2022/09/23 10:58:54;;;;;;;;;2.25;2.25;;;;;;;;5079106;28;9037;-79
2022/09/23 11:01:22;;;;;;;;;3.00;3.00;;;;;;;;5073020;28;11532;-79
2022/09/23 11:04:04;;;;;;;;;3.75;3.00;;;;;;;;5080119;28;11539;-76
2022/09/23 11:06:47;;;;;;;;;3.00;2.25;;;;;;;;5097701;28;8809;-75
2022/09/23 11:09:12;;;;;;;;;5.25;4.00;;;;;;;;5058009;28;10423;-75
2022/09/23 11:12:07;;;;;;;;;3.67;3.67;;;;;;;;5058293;28;11691;-75
2022/09/23 11:14:49;;;;;;;;;3.00;2.75;;;;;;;;5039773;28;11444;-74
2022/09/23 11:17:30;;;;;;;;;3.25;3.25;;;;;;;;5057244;28;11133;-74
2022/09/23 11:20:01;;;;;;;;;3.50;3.25;;;;;;;;5058118;28;10061;-74
2022/09/23 11:22:45;;;;;;;;;3.25;2.25;;;;;;;;5053219;23;8879;-72
2022/09/23 11:25:22;;;;;;;;;4.50;3.00;;;;;;;;5006929;28;9557;-72
2022/09/23 11:27:51;;;;;;;;;3.25;3.00;;;;;;;;5013645;28;12082;-72
2022/09/23 11:30:19;;;;;;;;;3.00;3.00;;;;;;;;5020705;28;8901;-74
2022/09/23 11:33:02;;;;;;;;;1.50;1.50;;;;;;;;5019696;28;9777;-73
2022/09/23 11:35:35;;;;;;;;;5.00;3.00;;;;;;;;5019724;28;12039;-73
2022/09/23 11:38:00;;;;;;;;;2.25;2.25;;;;;;;;5020588;28;11637;-73
2022/09/23 11:40:29;;;;;;;;;6.67;5.00;;;;;;;;5018416;28;11683;-73
2022/09/23 11:42:54;;;;;;;;;4.00;3.00;;;;;;;;5019631;28;11703;-72
2022/09/23 11:45:23;;;;;;;;;3.33;3.00;;;;;;;;5019560;28;10492;-74
2022/09/23 11:47:55;;;;;;;;;3.75;3.50;;;;;;;;5019315;28;8863;-73
2022/09/23 11:50:24;;;;;;;;;2.00;2.00;;;;;;;;5019782;28;8771;-73
2022/09/23 11:52:57;;;;;;;;;3.00;2.50;;;;;;;;5018606;28;11383;-74
2022/09/23 11:55:31;;;;;;;;;2.00;2.00;;;;;;;;5001205;28;12024;-73
2022/09/23 11:57:56;;;;;;;;;6.33;5.33;;;;;;;;5019057;28;12053;-72
2022/09/23 12:00:28;;;;;;;;;1.67;1.67;;;;;;;;5018394;28;11372;-72
2022/09/23 12:02:55;;;;;;;;;3.00;2.00;;;;;;;;5019414;28;11597;-73
2022/09/23 12:05:25;;;;;;;;;1.00;1.00;;;;;;;;5018623;28;13222;-74
2022/09/23 12:07:54;;;;;;;;;2.00;2.00;;;;;;;;5018533;28;8783;-73
2022/09/23 12:10:21;;;;;;;;;2.00;2.00;;;;;;;;5018515;28;8961;-73
2022/09/23 12:13:05;;;;;;;;;1.25;1.25;;;;;;;;5018986;28;8783;-74
2022/09/23 12:15:45;;;;;;;;;1.00;1.00;;;;;;;;5017287;28;13784;-73
2022/09/23 12:18:17;;;;;;;;;1.75;1.25;;;;;;;;5018870;28;8826;-74
2022/09/23 12:20:51;;;;;;;;;1.00;1.00;;;;;;;;5019372;28;8857;-74
2022/09/23 12:23:19;;;;;;;;;1.50;0.75;;;;;;;;5018807;28;8892;-76
2022/09/23 12:25:51;;;;;;;;;1.75;1.00;;;;;;;;5015558;28;10353;-75
2022/09/23 12:28:36;;;;;;;;;1.50;1.50;;;;;;;;5007460;28;10410;-75
2022/09/23 12:31:03;;;;;;;;;1.00;1.00;;;;;;;;5012284;28;8966;-73
2022/09/23 12:33:31;;;;;;;;;1.00;1.00;;;;;;;;5007212;28;8781;-74
2022/09/23 12:36:03;;;;;;;;;1.00;0.75;;;;;;;;4999057;28;8828;-74
2022/09/23 12:38:37;;;;;;;;;1.00;1.00;;;;;;;;5002005;28;9232;-76
2022/09/23 12:41:26;;;;;;;;;2.00;1.00;;;;;;;;4999387;28;8890;-75
2022/09/23 12:43:54;;;;;;;;;2.00;1.00;;;;;;;;4993691;28;9526;-74
2022/09/23 12:46:21;;;;;;;;;1.75;1.00;;;;;;;;4999449;28;8818;-74
2022/09/23 12:48:57;;;;;;;;;1.00;1.00;;;;;;;;4998877;28;8894;-76
2022/09/23 12:51:25;;;;;;;;;1.00;1.00;;;;;;;;4999099;28;8820;-75
2022/09/23 12:53:53;;;;;;;;;1.00;1.00;;;;;;;;4998994;28;9241;-75
2022/09/23 12:56:18;;;;;;;;;1.75;1.00;;;;;;;;5008604;28;8836;-73
2022/09/23 12:58:43;;;;;;;;;1.67;1.00;;;;;;;;5006936;28;8958;-76
2022/09/23 13:01:17;;;;;;;;;1.00;1.00;;;;;;;;5007376;28;8840;-75
2022/09/23 13:06:39;;;;;;;;;0.75;0.75;;;;;;;;5009850;28;8787;-79
2022/09/23 13:09:30;;;;;;;;;0.00;0.00;;;;;;;;5008107;28;11449;-74
2022/09/23 13:12:00;;;;;;;;;2.00;2.00;;;;;;;;5004664;28;8985;-75
2022/09/23 13:14:27;;;;;;;;;1.00;1.00;;;;;;;;5007473;28;8986;-76
2022/09/23 13:16:54;;;;;;;;;1.00;1.00;;;;;;;;5007383;28;9304;-77
2022/09/23 13:19:25;;;;;;;;;2.00;1.00;;;;;;;;5009252;28;8919;-74
2022/09/23 13:21:53;;;;;;;;;1.00;1.00;;;;;;;;4990966;28;8837;-74
2022/09/23 13:24:22;;;;;;;;;2.00;2.00;;;;;;;;4991398;28;9119;-75
2022/09/23 13:27:07;;;;;;;;;1.00;1.00;;;;;;;;5009006;28;9074;-73
2022/09/23 13:29:37;;;;;;;;;2.00;2.00;;;;;;;;5007990;28;9777;-73
2022/09/23 13:32:02;;;;;;;;;2.00;2.00;;;;;;;;5008772;28;8958;-73
2022/09/23 13:34:32;;;;;;;;;0.33;0.33;;;;;;;;5008384;28;9932;-74
2022/09/23 13:37:09;;;;;;;;;1.00;1.00;;;;;;;;5006068;28;11400;-72
2022/09/23 13:39:35;;;;;;;;;0.33;0.33;;;;;;;;5008258;28;11534;-71
2022/09/23 13:42:03;;;;;;;;;1.00;1.00;;;;;;;;5005346;28;11953;-73
2022/09/23 13:44:28;;;;;;;;;1.00;1.00;;;;;;;;4994587;28;11675;-75
2022/09/23 13:46:58;;;;;;;;;1.67;1.00;;;;;;;;4997982;28;9143;-76
2022/09/23 13:49:25;;;;;;;;;2.00;0.33;;;;;;;;4999323;28;8780;-75
2022/09/23 13:51:54;;;;;;;;;1.00;1.00;;;;;;;;4998064;28;11968;-73
2022/09/23 13:54:27;;;;;;;;;2.00;2.00;;;;;;;;5000338;28;11462;-74
2022/09/23 13:56:54;;;;;;;;;1.67;0.00;;;;;;;;5018211;28;9027;-74
2022/09/23 13:59:19;;;;;;;;;1.67;1.67;;;;;;;;5017679;28;11178;-75
2022/09/23 14:01:45;;;;;;;;;0.33;0.33;;;;;;;;5018485;28;9262;-75
2022/09/23 14:04:24;;;;;;;;;2.00;1.00;;;;;;;;5017989;28;11904;-77
2022/09/23 14:06:49;;;;;;;;;2.00;2.00;;;;;;;;5006389;28;11645;-71
2022/09/23 14:09:16;;;;;;;;;3.33;3.00;;;;;;;;5013426;28;8799;-72
2022/09/23 14:11:42;;;;;;;;;4.00;2.67;;;;;;;;5017837;28;12056;-74
2022/09/23 14:14:12;;;;;;;;;1.00;1.00;;;;;;;;5018339;28;11459;-76
2022/09/23 14:16:38;;;;;;;;;2.00;1.67;;;;;;;;5017263;28;11378;-74
2022/09/23 14:19:04;;;;;;;;;3.00;2.00;;;;;;;;5005581;28;11652;-74
2022/09/23 14:21:32;;;;;;;;;1.00;1.00;;;;;;;;5021293;28;13063;-75
2022/09/23 14:24:03;;;;;;;;;2.50;1.00;;;;;;;;5020686;28;8879;-74
2022/09/23 14:26:29;;;;;;;;;3.67;1.67;;;;;;;;5021015;28;9343;-75
2022/09/23 14:28:55;;;;;;;;;2.00;1.00;;;;;;;;4999832;28;11664;-74
2022/09/23 14:31:21;;;;;;;;;2.00;1.00;;;;;;;;5001541;28;11630;-73
2022/09/23 14:33:47;;;;;;;;;1.75;1.25;;;;;;;;5001614;28;8871;-76
2022/09/23 14:39:09;;;;;;;;;3.67;1.00;;;;;;;;5000283;28;8790;-75
2022/09/23 14:41:40;;;;;;;;;1.00;1.00;;;;;;;;5002024;28;8904;-75
2022/09/23 14:44:06;;;;;;;;;1.00;1.00;;;;;;;;4983821;28;10182;-75
2022/09/23 14:46:33;;;;;;;;;1.00;1.00;;;;;;;;5001098;28;8900;-75
2022/09/23 14:49:18;;;;;;;;;1.67;1.00;;;;;;;;5000464;28;8890;-76
2022/09/23 14:51:43;;;;;;;;;4.00;4.00;;;;;;;;5000977;28;8909;-81
2022/09/23 14:54:27;;;;;;;;;0.00;0.00;;;;;;;;4985115;28;12675;-74
2022/09/23 14:56:53;;;;;;;;;2.67;2.00;;;;;;;;5019579;28;10442;-72
2022/09/23 14:59:24;;;;;;;;;2.00;1.00;;;;;;;;5002424;28;10369;-77
2022/09/23 15:01:49;;;;;;;;;1.00;1.00;;;;;;;;5001309;28;9546;-73
2022/09/23 15:04:16;;;;;;;;;1.67;0.00;;;;;;;;5001307;28;8996;-73
2022/09/23 15:06:47;;;;;;;;;2.00;0.75;;;;;;;;5000417;28;9780;-72
2022/09/23 15:09:18;;;;;;;;;0.00;0.00;;;;;;;;4999274;28;12735;-72
2022/09/23 15:11:44;;;;;;;;;0.00;0.00;;;;;;;;5001120;28;11630;-72
2022/09/23 15:14:09;;;;;;;;;1.00;1.00;;;;;;;;5001130;28;8896;-73
2022/09/23 15:16:37;;;;;;;;;1.00;1.00;;;;;;;;5001186;28;8927;-73
2022/09/23 15:19:02;;;;;;;;;1.00;1.00;;;;;;;;5003300;28;8872;-74
2022/09/23 15:21:39;;;;;;;;;0.67;0.67;;;;;;;;5000446;28;8885;-73
2022/09/23 15:24:25;;;;;;;;;1.00;1.00;;;;;;;;5000492;28;11622;-72
2022/09/23 15:26:56;;;;;;;;;1.00;0.00;;;;;;;;5018359;28;11608;-74
2022/09/23 15:29:23;;;;;;;;;1.00;1.00;;;;;;;;5016071;28;8877;-71
2022/09/23 15:31:49;;;;;;;;;1.67;1.67;;;;;;;;5019210;28;9083;-72
2022/09/23 15:34:14;;;;;;;;;1.00;1.00;;;;;;;;5019555;28;8953;-71
2022/09/23 15:36:41;;;;;;;;;2.00;2.00;;;;;;;;5020122;28;8966;-71
2022/09/23 15:39:07;;;;;;;;;3.67;2.33;;;;;;;;5012457;28;8779;-72
2022/09/23 15:41:33;;;;;;;;;2.00;2.00;;;;;;;;5018643;28;11641;-73
2022/09/23 15:44:03;;;;;;;;;15.00;14.00;;;;;;;;5019370;28;11303;-73
2022/09/23 15:46:29;;;;;;;;;6.00;4.00;;;;;;;;5019869;28;22528;-72
2022/09/23 15:49:05;;;;;;;;;17.50;17.50;;;;;;;;5016316;28;22304;-72
2022/09/23 15:51:30;;;;;;;;;2.00;1.00;;;;;;;;5019211;28;22898;-73
2022/09/23 15:53:56;;;;;;;;;0.33;0.33;;;;;;;;5019041;28;22144;-73
2022/09/23 15:56:22;;;;;;;;;2.33;2.00;;;;;;;;5019564;28;11334;-72
2022/09/23 15:58:48;;;;;;;;;1.67;1.67;;;;;;;;5006360;28;11680;-74
2022/09/23 16:01:21;;;;;;;;;0.00;0.00;;;;;;;;5005991;28;11668;-78
2022/09/23 16:03:46;;;;;;;;;2.67;2.67;;;;;;;;5019912;28;11383;-74
2022/09/23 16:06:12;;;;;;;;;1.00;1.00;;;;;;;;5019800;28;11548;-73
2022/09/23 16:08:37;;;;;;;;;3.00;2.00;;;;;;;;5019835;28;11773;-73
2022/09/23 16:11:04;;;;;;;;;3.00;2.00;;;;;;;;5015377;28;8803;-75
2022/09/23 16:13:30;;;;;;;;;1.67;1.33;;;;;;;;5009848;28;8827;-73
2022/09/23 16:15:55;;;;;;;;;14.00;12.75;;;;;;;;5017787;28;11476;-76
2022/09/23 16:18:20;;;;;;;;;4.00;3.00;;;;;;;;5012331;28;22532;-74
2022/09/23 16:20:46;;;;;;;;;4.33;4.33;;;;;;;;5007098;28;22703;-75
2022/09/23 16:23:12;;;;;;;;;5.00;2.33;;;;;;;;4990479;28;12806;-75
2022/09/23 16:25:37;;;;;;;;;10.25;10.25;;;;;;;;5008542;28;10276;-76
2022/09/23 16:28:03;;;;;;;;;3.00;3.00;;;;;;;;5007665;28;22436;-77
2022/09/23 16:30:30;;;;;;;;;3.00;3.00;;;;;;;;5006774;28;22471;-76
2022/09/23 16:32:59;;;;;;;;;9.00;9.00;;;;;;;;5007618;28;8855;-79
2022/09/23 16:35:26;;;;;;;;;7.67;7.67;;;;;;;;5008410;28;9270;-77
2022/09/23 16:37:53;;;;;;;;;2.67;2.67;;;;;;;;5009118;28;11621;-78
2022/09/23 16:40:20;;;;;;;;;5.67;3.67;;;;;;;;5007999;28;9122;-78
2022/09/23 16:42:50;;;;;;;;;5.00;5.00;;;;;;;;5008182;28;9685;-74
2022/09/23 16:45:17;;;;;;;;;5.67;5.67;;;;;;;;5007441;28;10360;-79
2022/09/23 16:47:46;;;;;;;;;4.00;4.00;;;;;;;;5007983;28;9265;-78
2022/09/23 16:50:12;;;;;;;;;3.00;3.00;;;;;;;;5009065;28;11603;-76
2022/09/23 16:52:38;;;;;;;;;2.75;2.00;;;;;;;;5007242;28;9172;-78
2022/09/23 16:55:03;;;;;;;;;4.00;4.00;;;;;;;;5007548;28;10305;-74
2022/09/23 16:57:29;;;;;;;;;3.25;3.25;;;;;;;;5006907;28;10379;-77
2022/09/23 17:05:22;;;;;;;;;7.00;7.00;;;;;;;;4999054;28;11345;-74
2022/09/23 17:07:47;;;;;;;;;10.00;9.50;;;;;;;;4996798;28;9632;-77
2022/09/23 17:10:15;;;;;;;;;9.00;8.00;;;;;;;;5003434;28;22476;-77
2022/09/23 17:12:41;;;;;;;;;10.75;9.00;;;;;;;;4993284;28;21855;-76
2022/09/23 17:15:07;;;;;;;;;11.00;9.00;;;;;;;;5004068;28;23693;-75
2022/09/23 17:17:35;;;;;;;;;8.75;7.00;;;;;;;;5006090;28;9237;-75
2022/09/23 17:20:04;;;;;;;;;8.00;8.00;;;;;;;;5008562;28;21655;-77
2022/09/23 17:22:29;;;;;;;;;12.50;9.75;;;;;;;;5004915;28;9842;-75
2022/09/23 17:24:54;;;;;;;;;7.00;7.00;;;;;;;;4984264;28;24224;-76
2022/09/23 17:27:20;;;;;;;;;7.00;6.75;;;;;;;;5007570;28;23507;-78
2022/09/23 17:29:45;;;;;;;;;8.00;6.00;;;;;;;;4998781;28;9107;-76
2022/09/23 17:32:10;;;;;;;;;7.50;6.75;;;;;;;;4998873;28;11299;-73
2022/09/23 17:34:36;;;;;;;;;10.75;10.50;;;;;;;;5000951;28;11815;-74
2022/09/23 17:37:01;;;;;;;;;12.50;12.50;;;;;;;;5003945;28;23472;-74
2022/09/23 17:39:26;;;;;;;;;9.50;9.50;;;;;;;;4992873;28;10854;-73
2022/09/23 17:41:54;;;;;;;;;10.75;10.00;;;;;;;;5010097;28;22102;-73
2022/09/23 17:44:20;;;;;;;;;11.75;10.00;;;;;;;;5007137;28;22351;-75
2022/09/23 17:46:46;;;;;;;;;11.50;9.00;;;;;;;;5007495;28;10049;-77
2022/09/23 17:49:11;;;;;;;;;10.50;9.00;;;;;;;;5005127;28;21641;-75
2022/09/23 17:51:37;;;;;;;;;13.25;11.75;;;;;;;;5005469;28;8786;-75
2022/09/23 17:54:02;;;;;;;;;13.25;11.75;;;;;;;;4988723;28;23794;-74
2022/09/23 17:56:31;;;;;;;;;10.75;9.50;;;;;;;;5005920;28;9646;-75
2022/09/23 17:58:59;;;;;;;;;12.50;9.25;;;;;;;;5002930;28;22779;-75
2022/09/23 18:01:24;;;;;;;;;12.00;11.00;;;;;;;;5005100;28;10643;-74
2022/09/23 18:03:53;;;;;;;;;13.50;12.25;;;;;;;;5007588;28;21423;-74
2022/09/23 18:06:20;;;;;;;;;10.50;10.50;;;;;;;;5008331;28;11655;-73
2022/09/23 18:08:46;;;;;;;;;9.50;9.50;;;;;;;;5005484;28;12309;-73
2022/09/23 18:11:14;;;;;;;;;13.00;11.00;;;;;;;;5006219;28;22534;-76
2022/09/23 18:13:40;;;;;;;;;11.00;10.75;;;;;;;;5004579;28;22499;-76
2022/09/23 18:16:05;;;;;;;;;12.00;12.00;;;;;;;;5005436;28;11368;-75
2022/09/23 18:18:31;;;;;;;;;13.25;12.00;;;;;;;;5003415;28;12756;-76
2022/09/23 18:21:03;;;;;;;;;15.50;12.00;;;;;;;;5004818;28;8824;-74
2022/09/23 18:23:28;;;;;;;;;12.75;10.75;;;;;;;;5007081;28;9005;-77
2022/09/23 18:25:54;;;;;;;;;17.75;13.75;;;;;;;;5005382;28;11576;-75
2022/09/23 18:28:19;;;;;;;;;4.75;4.75;;;;;;;;5003981;28;9798;-74
2022/09/23 18:30:51;;;;;;;;;12.00;11.50;;;;;;;;5006850;28;23528;-75
2022/09/23 18:33:16;;;;;;;;;15.00;13.75;;;;;;;;5007251;28;22403;-77
2022/09/23 18:35:41;;;;;;;;;16.00;16.00;;;;;;;;5007330;28;11601;-78
2022/09/23 18:38:07;;;;;;;;;10.00;10.00;;;;;;;;5005408;28;11411;-73
2022/09/23 18:40:33;;;;;;;;;13.00;11.00;;;;;;;;5005969;28;9419;-76
2022/09/23 18:42:58;;;;;;;;;13.50;13.50;;;;;;;;4997231;28;8809;-75
2022/09/23 18:45:23;;;;;;;;;9.50;9.00;;;;;;;;4998269;28;10334;-78
2022/09/23 18:50:39;;;;;;;;;9.50;9.00;;;;;;;;4997212;28;21381;-77
2022/09/23 18:53:04;;;;;;;;;11.00;8.75;;;;;;;;4997215;28;21637;-77
2022/09/23 18:55:31;;;;;;;;;13.00;11.00;;;;;;;;5007715;28;22937;-74
2022/09/23 18:57:58;;;;;;;;;16.50;12.25;;;;;;;;5001721;28;22843;-79
2022/09/23 19:00:23;;;;;;;;;16.50;15.50;;;;;;;;5005166;28;11541;-72
2022/09/23 19:02:50;;;;;;;;;13.25;10.25;;;;;;;;5008884;28;10478;-75
2022/09/23 19:05:15;;;;;;;;;13.00;9.50;;;;;;;;5008013;28;11730;-74
2022/09/23 19:07:41;;;;;;;;;11.75;11.75;;;;;;;;5006726;28;21405;-72
2022/09/23 19:10:07;;;;;;;;;10.00;7.00;;;;;;;;5009346;28;22798;-74
2022/09/23 19:12:32;;;;;;;;;17.25;12.50;;;;;;;;5012132;28;21672;-74
2022/09/23 19:14:57;;;;;;;;;14.00;9.75;;;;;;;;5009370;28;22082;-73
2022/09/23 19:17:23;;;;;;;;;14.50;13.75;;;;;;;;5005918;28;22773;-73
2022/09/23 19:19:48;;;;;;;;;14.50;13.75;;;;;;;;4990051;28;24465;-74
2022/09/23 19:22:14;;;;;;;;;14.25;12.00;;;;;;;;5010543;28;8936;-73
2022/09/23 19:24:39;;;;;;;;;15.50;12.25;;;;;;;;5010687;28;10756;-74
2022/09/23 19:27:04;;;;;;;;;18.00;15.00;;;;;;;;5005946;28;11613;-75
2022/09/23 19:29:30;;;;;;;;;16.25;14.75;;;;;;;;5009908;28;11552;-74
2022/09/23 19:31:55;;;;;;;;;15.75;13.50;;;;;;;;5007728;28;11645;-69
2022/09/23 19:34:24;;;;;;;;;10.00;7.00;;;;;;;;5008689;28;11383;-73
2022/09/23 19:36:51;;;;;;;;;16.00;15.00;;;;;;;;5007319;28;23046;-74
2022/09/23 19:39:16;;;;;;;;;15.75;14.50;;;;;;;;5006879;28;21884;-76
2022/09/23 19:41:42;;;;;;;;;17.50;15.00;;;;;;;;5010203;28;11580;-75
2022/09/23 19:44:07;;;;;;;;;18.25;14.75;;;;;;;;5014181;28;11408;-72
2022/09/23 19:46:35;;;;;;;;;17.75;15.75;;;;;;;;5008785;28;11531;-76
2022/09/23 19:49:02;;;;;;;;;14.75;13.25;;;;;;;;5007185;28;9941;-75
2022/09/23 19:51:28;;;;;;;;;17.00;15.50;;;;;;;;5007204;28;10832;-79
2022/09/23 19:53:54;;;;;;;;;14.00;13.00;;;;;;;;5009660;28;11575;-76
2022/09/23 19:56:19;;;;;;;;;12.75;11.25;;;;;;;;5010090;28;11870;-77
2022/09/23 19:58:46;;;;;;;;;14.00;13.50;;;;;;;;5006242;28;11358;-77
